sensor_id;sensor_type;location;lat;lon;timestamp;temperature;humidity
50690;DHT22;54375;48.298;11.238;2022-11-20T00:00:43;4.70;93.40
50690;DHT22;54375;48.298;11.238;2022-11-20T00:03:46;4.70;93.40
50690;DHT22;54375;48.298;11.238;2022-11-20T00:06:48;4.70;93.40
50690;DHT22;54375;48.298;11.238;2022-11-20T00:09:49;4.70;93.30
50690;DHT22;54375;48.298;11.238;2022-11-20T00:12:50;4.70;93.30
50690;DHT22;54375;48.298;11.238;2022-11-20T00:15:56;4.70;93.30
50690;DHT22;54375;48.298;11.238;2022-11-20T00:18:59;4.70;93.40
50690;DHT22;54375;48.298;11.238;2022-11-20T00:22:00;4.70;93.40
50690;DHT22;54375;48.298;11.238;2022-11-20T00:25:01;4.70;93.40
50690;DHT22;54375;48.298;11.238;2022-11-20T00:28:03;4.70;93.40
50690;DHT22;54375;48.298;11.238;2022-11-20T00:31:06;4.70;93.40
50690;DHT22;54375;48.298;11.238;2022-11-20T00:34:09;4.70;93.30
50690;DHT22;54375;48.298;11.238;2022-11-20T00:37:10;4.70;93.30
50690;DHT22;54375;48.298;11.238;2022-11-20T00:40:12;4.60;93.30
50690;DHT22;54375;48.298;11.238;2022-11-20T00:43:13;4.60;93.10
50690;DHT22;54375;48.298;11.238;2022-11-20T00:46:17;4.60;93.20
50690;DHT22;54375;48.298;11.238;2022-11-20T00:49:20;4.60;93.20
50690;DHT22;54375;48.298;11.238;2022-11-20T00:52:21;4.60;93.20
50690;DHT22;54375;48.298;11.238;2022-11-20T00:55:23;4.60;93.40
50690;DHT22;54375;48.298;11.238;2022-11-20T00:58:28;4.60;93.10
50690;DHT22;54375;48.298;11.238;2022-11-20T01:01:29;4.60;93.10
50690;DHT22;54375;48.298;11.238;2022-11-20T01:04:33;4.60;93.00
50690;DHT22;54375;48.298;11.238;2022-11-20T01:07:35;4.60;93.00
50690;DHT22;54375;48.298;11.238;2022-11-20T01:10:36;4.50;93.10
50690;DHT22;54375;48.298;11.238;2022-11-20T01:13:38;4.50;92.90
50690;DHT22;54375;48.298;11.238;2022-11-20T01:16:41;4.50;93.00
50690;DHT22;54375;48.298;11.238;2022-11-20T01:19:43;4.50;92.90
50690;DHT22;54375;48.298;11.238;2022-11-20T01:22:44;4.50;92.90
50690;DHT22;54375;48.298;11.238;2022-11-20T01:25:46;4.50;92.90
50690;DHT22;54375;48.298;11.238;2022-11-20T01:28:48;4.50;92.90
50690;DHT22;54375;48.298;11.238;2022-11-20T01:31:49;4.50;92.80
50690;DHT22;54375;48.298;11.238;2022-11-20T01:34:52;4.50;92.90
50690;DHT22;54375;48.298;11.238;2022-11-20T01:37:53;4.40;92.80
50690;DHT22;54375;48.298;11.238;2022-11-20T01:40:55;4.40;92.80
50690;DHT22;54375;48.298;11.238;2022-11-20T01:43:56;4.40;92.90
50690;DHT22;54375;48.298;11.238;2022-11-20T01:46:59;4.40;92.80
50690;DHT22;54375;48.298;11.238;2022-11-20T01:50:08;4.40;92.80
50690;DHT22;54375;48.298;11.238;2022-11-20T01:53:14;4.40;92.80
50690;DHT22;54375;48.298;11.238;2022-11-20T01:56:16;4.40;92.90
50690;DHT22;54375;48.298;11.238;2022-11-20T01:59:19;4.30;92.80
50690;DHT22;54375;48.298;11.238;2022-11-20T02:02:20;4.40;92.90
50690;DHT22;54375;48.298;11.238;2022-11-20T02:05:27;4.40;92.90
50690;DHT22;54375;48.298;11.238;2022-11-20T02:08:30;4.30;92.90
50690;DHT22;54375;48.298;11.238;2022-11-20T02:11:32;4.40;92.90
50690;DHT22;54375;48.298;11.238;2022-11-20T02:14:34;4.30;92.90
50690;DHT22;54375;48.298;11.238;2022-11-20T02:17:35;4.40;93.00
50690;DHT22;54375;48.298;11.238;2022-11-20T02:20:38;4.40;93.00
50690;DHT22;54375;48.298;11.238;2022-11-20T02:27:16;4.40;92.90
50690;DHT22;54375;48.298;11.238;2022-11-20T02:30:18;4.40;92.90
50690;DHT22;54375;48.298;11.238;2022-11-20T02:33:19;4.40;92.80
50690;DHT22;54375;48.298;11.238;2022-11-20T02:36:20;4.40;92.70
50690;DHT22;54375;48.298;11.238;2022-11-20T02:39:25;4.40;92.70
50690;DHT22;54375;48.298;11.238;2022-11-20T02:42:27;4.40;92.60
50690;DHT22;54375;48.298;11.238;2022-11-20T02:45:28;4.40;92.50
50690;DHT22;54375;48.298;11.238;2022-11-20T02:48:29;4.40;92.40
50690;DHT22;54375;48.298;11.238;2022-11-20T02:51:32;4.30;92.30
50690;DHT22;54375;48.298;11.238;2022-11-20T02:54:35;4.30;92.40
50690;DHT22;54375;48.298;11.238;2022-11-20T02:57:37;4.30;92.40
50690;DHT22;54375;48.298;11.238;2022-11-20T03:00:37;4.30;92.40
50690;DHT22;54375;48.298;11.238;2022-11-20T03:03:39;4.30;92.40
50690;DHT22;54375;48.298;11.238;2022-11-20T03:06:40;4.30;92.40
50690;DHT22;54375;48.298;11.238;2022-11-20T03:09:43;4.30;92.40
50690;DHT22;54375;48.298;11.238;2022-11-20T03:12:44;4.30;92.40
50690;DHT22;54375;48.298;11.238;2022-11-20T03:15:45;4.30;92.30
50690;DHT22;54375;48.298;11.238;2022-11-20T03:18:46;4.30;92.00
50690;DHT22;54375;48.298;11.238;2022-11-20T03:21:48;4.30;92.00
50690;DHT22;54375;48.298;11.238;2022-11-20T03:24:50;4.30;92.00
50690;DHT22;54375;48.298;11.238;2022-11-20T03:27:51;4.30;92.00
50690;DHT22;54375;48.298;11.238;2022-11-20T03:30:52;4.30;91.90
50690;DHT22;54375;48.298;11.238;2022-11-20T03:33:53;4.30;91.70
50690;DHT22;54375;48.298;11.238;2022-11-20T03:36:54;4.30;91.70
50690;DHT22;54375;48.298;11.238;2022-11-20T03:39:57;4.30;91.40
50690;DHT22;54375;48.298;11.238;2022-11-20T03:42:58;4.30;91.70
50690;DHT22;54375;48.298;11.238;2022-11-20T03:45:59;4.30;91.40
50690;DHT22;54375;48.298;11.238;2022-11-20T03:49:00;4.30;91.30
50690;DHT22;54375;48.298;11.238;2022-11-20T03:52:01;4.30;91.20
50690;DHT22;54375;48.298;11.238;2022-11-20T03:55:05;4.30;91.30
50690;DHT22;54375;48.298;11.238;2022-11-20T03:58:07;4.30;91.40
50690;DHT22;54375;48.298;11.238;2022-11-20T04:01:10;4.30;91.30
50690;DHT22;54375;48.298;11.238;2022-11-20T04:04:12;4.30;91.30
50690;DHT22;54375;48.298;11.238;2022-11-20T04:07:12;4.30;91.30
50690;DHT22;54375;48.298;11.238;2022-11-20T04:10:15;4.30;91.30
50690;DHT22;54375;48.298;11.238;2022-11-20T04:13:17;4.30;91.30
50690;DHT22;54375;48.298;11.238;2022-11-20T04:16:18;4.30;91.30
50690;DHT22;54375;48.298;11.238;2022-11-20T04:19:19;4.30;91.30
50690;DHT22;54375;48.298;11.238;2022-11-20T04:22:21;4.40;91.40
50690;DHT22;54375;48.298;11.238;2022-11-20T04:25:23;4.30;91.40
50690;DHT22;54375;48.298;11.238;2022-11-20T04:28:24;4.30;91.40
50690;DHT22;54375;48.298;11.238;2022-11-20T04:31:27;4.30;91.40
50690;DHT22;54375;48.298;11.238;2022-11-20T04:34:29;4.40;91.40
50690;DHT22;54375;48.298;11.238;2022-11-20T04:37:31;4.30;91.40
50690;DHT22;54375;48.298;11.238;2022-11-20T04:40:36;4.30;91.50
50690;DHT22;54375;48.298;11.238;2022-11-20T04:43:37;4.30;91.50
50690;DHT22;54375;48.298;11.238;2022-11-20T04:46:40;4.30;91.60
50690;DHT22;54375;48.298;11.238;2022-11-20T04:49:41;4.30;91.60
50690;DHT22;54375;48.298;11.238;2022-11-20T04:52:41;4.30;91.70
50690;DHT22;54375;48.298;11.238;2022-11-20T04:55:44;4.30;91.70
50690;DHT22;54375;48.298;11.238;2022-11-20T04:58:46;4.30;91.70
50690;DHT22;54375;48.298;11.238;2022-11-20T05:01:47;4.30;91.80
50690;DHT22;54375;48.298;11.238;2022-11-20T05:04:49;4.30;91.70
50690;DHT22;54375;48.298;11.238;2022-11-20T05:07:50;4.30;91.70
50690;DHT22;54375;48.298;11.238;2022-11-20T05:10:52;4.20;91.60
50690;DHT22;54375;48.298;11.238;2022-11-20T05:13:53;4.30;91.70
50690;DHT22;54375;48.298;11.238;2022-11-20T05:16:55;4.30;91.60
50690;DHT22;54375;48.298;11.238;2022-11-20T05:19:55;4.30;91.50
50690;DHT22;54375;48.298;11.238;2022-11-20T05:22:57;4.30;91.40
50690;DHT22;54375;48.298;11.238;2022-11-20T05:26:02;4.30;91.40
50690;DHT22;54375;48.298;11.238;2022-11-20T05:29:04;4.30;91.30
50690;DHT22;54375;48.298;11.238;2022-11-20T05:32:06;4.20;91.10
50690;DHT22;54375;48.298;11.238;2022-11-20T05:35:08;4.20;91.20
50690;DHT22;54375;48.298;11.238;2022-11-20T05:38:10;4.20;91.20
50690;DHT22;54375;48.298;11.238;2022-11-20T05:41:14;4.20;91.20
50690;DHT22;54375;48.298;11.238;2022-11-20T05:44:15;4.10;91.10
50690;DHT22;54375;48.298;11.238;2022-11-20T05:47:16;4.10;91.10
50690;DHT22;54375;48.298;11.238;2022-11-20T05:50:18;4.10;91.10
50690;DHT22;54375;48.298;11.238;2022-11-20T05:53:19;4.00;91.10
50690;DHT22;54375;48.298;11.238;2022-11-20T05:56:22;3.90;91.10
50690;DHT22;54375;48.298;11.238;2022-11-20T05:59:23;3.90;91.10
50690;DHT22;54375;48.298;11.238;2022-11-20T06:02:24;3.90;91.20
50690;DHT22;54375;48.298;11.238;2022-11-20T06:05:25;3.80;91.30
50690;DHT22;54375;48.298;11.238;2022-11-20T06:08:26;3.80;91.40
50690;DHT22;54375;48.298;11.238;2022-11-20T06:11:29;3.80;91.50
50690;DHT22;54375;48.298;11.238;2022-11-20T06:14:30;3.80;91.80
50690;DHT22;54375;48.298;11.238;2022-11-20T06:17:31;3.80;91.70
50690;DHT22;54375;48.298;11.238;2022-11-20T06:20:32;3.80;91.70
50690;DHT22;54375;48.298;11.238;2022-11-20T06:23:34;3.80;91.70
50690;DHT22;54375;48.298;11.238;2022-11-20T06:26:36;3.90;91.60
50690;DHT22;54375;48.298;11.238;2022-11-20T06:29:37;3.90;91.30
50690;DHT22;54375;48.298;11.238;2022-11-20T06:32:38;3.90;91.00
50690;DHT22;54375;48.298;11.238;2022-11-20T06:35:39;4.00;90.90
50690;DHT22;54375;48.298;11.238;2022-11-20T06:38:41;4.00;91.10
50690;DHT22;54375;48.298;11.238;2022-11-20T06:41:43;4.00;90.40
50690;DHT22;54375;48.298;11.238;2022-11-20T06:44:44;4.10;90.40
50690;DHT22;54375;48.298;11.238;2022-11-20T06:47:45;4.10;90.40
50690;DHT22;54375;48.298;11.238;2022-11-20T06:50:47;4.10;90.50
50690;DHT22;54375;48.298;11.238;2022-11-20T06:53:48;4.10;90.40
50690;DHT22;54375;48.298;11.238;2022-11-20T06:56:50;4.20;90.50
50690;DHT22;54375;48.298;11.238;2022-11-20T06:59:51;4.20;90.50
50690;DHT22;54375;48.298;11.238;2022-11-20T07:02:52;4.20;90.50
50690;DHT22;54375;48.298;11.238;2022-11-20T07:05:54;4.20;90.50
50690;DHT22;54375;48.298;11.238;2022-11-20T07:08:55;4.30;90.30
50690;DHT22;54375;48.298;11.238;2022-11-20T07:11:57;4.20;90.30
50690;DHT22;54375;48.298;11.238;2022-11-20T07:14:58;4.30;90.30
50690;DHT22;54375;48.298;11.238;2022-11-20T07:17:59;4.30;90.30
50690;DHT22;54375;48.298;11.238;2022-11-20T07:21:01;4.30;90.30
50690;DHT22;54375;48.298;11.238;2022-11-20T07:24:02;4.30;90.30
50690;DHT22;54375;48.298;11.238;2022-11-20T07:27:04;4.30;90.60
50690;DHT22;54375;48.298;11.238;2022-11-20T07:30:07;4.40;90.50
50690;DHT22;54375;48.298;11.238;2022-11-20T07:33:07;4.40;90.20
50690;DHT22;54375;48.298;11.238;2022-11-20T07:36:09;4.40;90.20
50690;DHT22;54375;48.298;11.238;2022-11-20T07:39:10;4.50;90.20
50690;DHT22;54375;48.298;11.238;2022-11-20T07:42:12;4.50;90.10
50690;DHT22;54375;48.298;11.238;2022-11-20T07:45:13;4.50;90.00
50690;DHT22;54375;48.298;11.238;2022-11-20T07:48:14;4.60;89.70
50690;DHT22;54375;48.298;11.238;2022-11-20T07:51:15;4.60;89.60
50690;DHT22;54375;48.298;11.238;2022-11-20T07:54:16;4.70;90.10
50690;DHT22;54375;48.298;11.238;2022-11-20T07:57:18;4.70;89.00
50690;DHT22;54375;48.298;11.238;2022-11-20T08:00:20;4.80;89.30
50690;DHT22;54375;48.298;11.238;2022-11-20T08:03:20;4.80;89.30
50690;DHT22;54375;48.298;11.238;2022-11-20T08:06:21;4.90;88.90
50690;DHT22;54375;48.298;11.238;2022-11-20T08:09:22;4.90;88.80
50690;DHT22;54375;48.298;11.238;2022-11-20T08:12:25;4.90;87.80
50690;DHT22;54375;48.298;11.238;2022-11-20T08:15:26;5.00;87.90
50690;DHT22;54375;48.298;11.238;2022-11-20T08:18:27;5.00;88.00
50690;DHT22;54375;48.298;11.238;2022-11-20T08:21:28;5.00;88.20
50690;DHT22;54375;48.298;11.238;2022-11-20T08:24:29;5.10;88.00
50690;DHT22;54375;48.298;11.238;2022-11-20T08:27:32;5.10;88.10
50690;DHT22;54375;48.298;11.238;2022-11-20T08:30:33;5.20;87.80
50690;DHT22;54375;48.298;11.238;2022-11-20T08:33:35;5.20;87.10
50690;DHT22;54375;48.298;11.238;2022-11-20T08:36:36;5.20;86.80
50690;DHT22;54375;48.298;11.238;2022-11-20T08:39:37;5.20;86.80
50690;DHT22;54375;48.298;11.238;2022-11-20T08:42:46;5.30;87.50
50690;DHT22;54375;48.298;11.238;2022-11-20T08:45:47;5.30;87.00
50690;DHT22;54375;48.298;11.238;2022-11-20T08:48:48;5.30;86.90
50690;DHT22;54375;48.298;11.238;2022-11-20T08:51:48;5.40;87.00
50690;DHT22;54375;48.298;11.238;2022-11-20T08:54:49;5.40;86.30
50690;DHT22;54375;48.298;11.238;2022-11-20T08:57:52;5.50;86.20
50690;DHT22;54375;48.298;11.238;2022-11-20T09:00:53;5.60;86.50
50690;DHT22;54375;48.298;11.238;2022-11-20T09:03:55;5.60;87.10
50690;DHT22;54375;48.298;11.238;2022-11-20T09:06:56;5.70;86.10
50690;DHT22;54375;48.298;11.238;2022-11-20T09:09:57;5.80;85.60
50690;DHT22;54375;48.298;11.238;2022-11-20T09:13:00;5.80;84.90
50690;DHT22;54375;48.298;11.238;2022-11-20T09:16:01;5.80;85.20
50690;DHT22;54375;48.298;11.238;2022-11-20T09:19:03;5.80;84.30
50690;DHT22;54375;48.298;11.238;2022-11-20T09:22:04;5.90;84.00
50690;DHT22;54375;48.298;11.238;2022-11-20T09:25:05;5.90;85.10
50690;DHT22;54375;48.298;11.238;2022-11-20T09:28:08;5.90;83.80
50690;DHT22;54375;48.298;11.238;2022-11-20T09:31:21;6.00;84.10
50690;DHT22;54375;48.298;11.238;2022-11-20T09:34:22;6.00;83.60
50690;DHT22;54375;48.298;11.238;2022-11-20T09:37:23;6.10;82.70
50690;DHT22;54375;48.298;11.238;2022-11-20T09:40:27;6.10;82.90
50690;DHT22;54375;48.298;11.238;2022-11-20T09:43:49;6.20;82.20
50690;DHT22;54375;48.298;11.238;2022-11-20T09:46:56;6.20;82.20
50690;DHT22;54375;48.298;11.238;2022-11-20T09:50:10;6.20;82.50
50690;DHT22;54375;48.298;11.238;2022-11-20T09:53:19;6.30;82.80
50690;DHT22;54375;48.298;11.238;2022-11-20T09:56:22;6.30;81.80
50690;DHT22;54375;48.298;11.238;2022-11-20T09:59:40;6.30;82.10
50690;DHT22;54375;48.298;11.238;2022-11-20T10:02:44;6.30;81.50
50690;DHT22;54375;48.298;11.238;2022-11-20T10:05:52;6.40;82.00
50690;DHT22;54375;48.298;11.238;2022-11-20T10:09:01;6.50;81.40
50690;DHT22;54375;48.298;11.238;2022-11-20T10:12:12;6.60;82.10
50690;DHT22;54375;48.298;11.238;2022-11-20T10:15:25;6.60;81.60
50690;DHT22;54375;48.298;11.238;2022-11-20T10:18:37;6.80;82.00
50690;DHT22;54375;48.298;11.238;2022-11-20T10:21:52;6.90;81.00
50690;DHT22;54375;48.298;11.238;2022-11-20T10:24:58;6.90;80.30
50690;DHT22;54375;48.298;11.238;2022-11-20T10:28:22;6.90;79.90
50690;DHT22;54375;48.298;11.238;2022-11-20T10:31:32;6.90;79.20
50690;DHT22;54375;48.298;11.238;2022-11-20T10:34:41;6.90;80.30
50690;DHT22;54375;48.298;11.238;2022-11-20T10:37:48;6.90;79.10
50690;DHT22;54375;48.298;11.238;2022-11-20T10:40:53;6.90;79.90
50690;DHT22;54375;48.298;11.238;2022-11-20T10:44:02;6.80;78.60
50690;DHT22;54375;48.298;11.238;2022-11-20T10:47:11;6.80;79.10
50690;DHT22;54375;48.298;11.238;2022-11-20T10:50:18;6.70;79.60
50690;DHT22;54375;48.298;11.238;2022-11-20T10:53:31;6.70;79.80
50690;DHT22;54375;48.298;11.238;2022-11-20T10:56:38;6.60;81.20
50690;DHT22;54375;48.298;11.238;2022-11-20T10:59:48;6.60;79.70
50690;DHT22;54375;48.298;11.238;2022-11-20T11:02:52;6.50;79.60
50690;DHT22;54375;48.298;11.238;2022-11-20T11:05:56;6.50;81.00
50690;DHT22;54375;48.298;11.238;2022-11-20T11:09:03;6.70;79.90
50690;DHT22;54375;48.298;11.238;2022-11-20T11:12:10;6.70;78.90
50690;DHT22;54375;48.298;11.238;2022-11-20T11:15:13;6.70;79.70
50690;DHT22;54375;48.298;11.238;2022-11-20T11:18:25;6.70;79.90
50690;DHT22;54375;48.298;11.238;2022-11-20T11:21:26;6.80;79.80
50690;DHT22;54375;48.298;11.238;2022-11-20T11:24:29;6.90;79.30
50690;DHT22;54375;48.298;11.238;2022-11-20T11:27:30;6.90;78.10
50690;DHT22;54375;48.298;11.238;2022-11-20T11:30:41;6.90;78.20
50690;DHT22;54375;48.298;11.238;2022-11-20T11:33:44;6.90;77.80
50690;DHT22;54375;48.298;11.238;2022-11-20T11:36:54;6.90;79.20
50690;DHT22;54375;48.298;11.238;2022-11-20T11:39:56;6.80;77.40
50690;DHT22;54375;48.298;11.238;2022-11-20T11:43:00;6.70;77.90
50690;DHT22;54375;48.298;11.238;2022-11-20T11:46:01;6.60;79.20
50690;DHT22;54375;48.298;11.238;2022-11-20T11:49:15;6.50;78.80
50690;DHT22;54375;48.298;11.238;2022-11-20T11:52:18;6.40;79.50
50690;DHT22;54375;48.298;11.238;2022-11-20T11:55:29;6.50;79.90
50690;DHT22;54375;48.298;11.238;2022-11-20T11:58:41;6.50;79.20
50690;DHT22;54375;48.298;11.238;2022-11-20T12:01:48;6.60;79.30
50690;DHT22;54375;48.298;11.238;2022-11-20T12:04:58;6.60;80.00
50690;DHT22;54375;48.298;11.238;2022-11-20T12:08:04;6.60;80.30
50690;DHT22;54375;48.298;11.238;2022-11-20T12:11:12;6.60;81.60
50690;DHT22;54375;48.298;11.238;2022-11-20T12:14:19;6.70;81.30
50690;DHT22;54375;48.298;11.238;2022-11-20T12:17:20;6.70;80.40
50690;DHT22;54375;48.298;11.238;2022-11-20T12:20:26;6.80;79.40
50690;DHT22;54375;48.298;11.238;2022-11-20T12:23:36;6.80;80.00
50690;DHT22;54375;48.298;11.238;2022-11-20T12:26:55;6.70;79.10
50690;DHT22;54375;48.298;11.238;2022-11-20T12:30:01;6.60;79.50
50690;DHT22;54375;48.298;11.238;2022-11-20T12:36:42;6.70;80.20
50690;DHT22;54375;48.298;11.238;2022-11-20T12:39:49;6.70;79.50
50690;DHT22;54375;48.298;11.238;2022-11-20T12:42:59;6.70;79.00
50690;DHT22;54375;48.298;11.238;2022-11-20T12:46:14;6.70;80.30
50690;DHT22;54375;48.298;11.238;2022-11-20T12:49:33;6.70;81.50
50690;DHT22;54375;48.298;11.238;2022-11-20T12:52:45;6.60;81.70
50690;DHT22;54375;48.298;11.238;2022-11-20T12:55:51;6.50;81.90
50690;DHT22;54375;48.298;11.238;2022-11-20T12:59:04;6.30;83.20
50690;DHT22;54375;48.298;11.238;2022-11-20T13:02:18;6.10;84.40
50690;DHT22;54375;48.298;11.238;2022-11-20T13:05:31;6.10;83.80
50690;DHT22;54375;48.298;11.238;2022-11-20T13:08:39;6.00;84.20
50690;DHT22;54375;48.298;11.238;2022-11-20T13:11:44;5.90;84.50
50690;DHT22;54375;48.298;11.238;2022-11-20T13:14:53;5.90;85.20
50690;DHT22;54375;48.298;11.238;2022-11-20T13:17:59;5.90;84.80
50690;DHT22;54375;48.298;11.238;2022-11-20T13:21:00;5.90;85.20
50690;DHT22;54375;48.298;11.238;2022-11-20T13:24:05;5.90;85.30
50690;DHT22;54375;48.298;11.238;2022-11-20T13:27:18;5.90;85.40
50690;DHT22;54375;48.298;11.238;2022-11-20T13:30:21;5.90;85.90
50690;DHT22;54375;48.298;11.238;2022-11-20T13:33:25;5.90;85.80
50690;DHT22;54375;48.298;11.238;2022-11-20T13:36:29;5.90;86.50
50690;DHT22;54375;48.298;11.238;2022-11-20T13:39:31;5.80;86.20
50690;DHT22;54375;48.298;11.238;2022-11-20T13:42:35;5.80;86.30
50690;DHT22;54375;48.298;11.238;2022-11-20T13:45:39;5.70;86.40
50690;DHT22;54375;48.298;11.238;2022-11-20T13:48:42;5.70;86.60
50690;DHT22;54375;48.298;11.238;2022-11-20T13:51:45;5.70;86.90
50690;DHT22;54375;48.298;11.238;2022-11-20T13:55:02;5.70;87.00
50690;DHT22;54375;48.298;11.238;2022-11-20T13:58:33;5.70;87.90
50690;DHT22;54375;48.298;11.238;2022-11-20T14:01:37;5.70;87.60
50690;DHT22;54375;48.298;11.238;2022-11-20T14:04:38;5.70;88.30
50690;DHT22;54375;48.298;11.238;2022-11-20T14:07:43;5.70;88.50
50690;DHT22;54375;48.298;11.238;2022-11-20T14:10:46;5.70;88.60
50690;DHT22;54375;48.298;11.238;2022-11-20T14:13:56;5.80;87.80
50690;DHT22;54375;48.298;11.238;2022-11-20T14:17:05;5.80;88.10
50690;DHT22;54375;48.298;11.238;2022-11-20T14:20:12;5.80;87.90
50690;DHT22;54375;48.298;11.238;2022-11-20T14:23:24;5.80;87.90
50690;DHT22;54375;48.298;11.238;2022-11-20T14:26:27;5.80;87.40
50690;DHT22;54375;48.298;11.238;2022-11-20T14:29:33;5.80;87.70
50690;DHT22;54375;48.298;11.238;2022-11-20T14:32:35;5.80;87.80
50690;DHT22;54375;48.298;11.238;2022-11-20T14:35:43;5.80;87.50
50690;DHT22;54375;48.298;11.238;2022-11-20T14:38:45;5.80;87.10
50690;DHT22;54375;48.298;11.238;2022-11-20T14:41:52;5.80;87.10
50690;DHT22;54375;48.298;11.238;2022-11-20T14:44:55;5.90;86.90
50690;DHT22;54375;48.298;11.238;2022-11-20T14:47:57;5.90;87.50
50690;DHT22;54375;48.298;11.238;2022-11-20T14:51:00;5.80;86.50
50690;DHT22;54375;48.298;11.238;2022-11-20T14:54:09;5.80;86.70
50690;DHT22;54375;48.298;11.238;2022-11-20T14:57:22;5.80;86.80
50690;DHT22;54375;48.298;11.238;2022-11-20T15:00:24;5.80;86.90
50690;DHT22;54375;48.298;11.238;2022-11-20T15:03:31;5.70;87.30
50690;DHT22;54375;48.298;11.238;2022-11-20T15:06:33;5.70;87.60
50690;DHT22;54375;48.298;11.238;2022-11-20T15:09:34;5.70;87.60
50690;DHT22;54375;48.298;11.238;2022-11-20T15:12:40;5.60;87.30
50690;DHT22;54375;48.298;11.238;2022-11-20T15:15:45;5.60;87.60
50690;DHT22;54375;48.298;11.238;2022-11-20T15:18:47;5.60;88.00
50690;DHT22;54375;48.298;11.238;2022-11-20T15:21:48;5.60;88.20
50690;DHT22;54375;48.298;11.238;2022-11-20T15:24:49;5.50;87.70
50690;DHT22;54375;48.298;11.238;2022-11-20T15:27:55;5.50;87.90
50690;DHT22;54375;48.298;11.238;2022-11-20T15:30:56;5.50;87.80
50690;DHT22;54375;48.298;11.238;2022-11-20T15:33:57;5.50;88.70
50690;DHT22;54375;48.298;11.238;2022-11-20T15:36:59;5.30;89.10
50690;DHT22;54375;48.298;11.238;2022-11-20T15:40:00;5.20;90.10
50690;DHT22;54375;48.298;11.238;2022-11-20T15:43:02;5.10;90.10
50690;DHT22;54375;48.298;11.238;2022-11-20T15:46:05;5.00;90.10
50690;DHT22;54375;48.298;11.238;2022-11-20T15:49:11;5.00;90.30
50690;DHT22;54375;48.298;11.238;2022-11-20T15:52:13;4.90;90.30
50690;DHT22;54375;48.298;11.238;2022-11-20T15:55:14;4.80;90.30
50690;DHT22;54375;48.298;11.238;2022-11-20T15:58:16;4.80;90.40
50690;DHT22;54375;48.298;11.238;2022-11-20T16:01:18;4.80;90.50
50690;DHT22;54375;48.298;11.238;2022-11-20T16:04:20;4.80;90.70
50690;DHT22;54375;48.298;11.238;2022-11-20T16:07:21;4.80;90.70
50690;DHT22;54375;48.298;11.238;2022-11-20T16:10:25;4.80;90.70
50690;DHT22;54375;48.298;11.238;2022-11-20T16:13:27;4.80;90.80
50690;DHT22;54375;48.298;11.238;2022-11-20T16:16:32;4.70;91.00
50690;DHT22;54375;48.298;11.238;2022-11-20T16:19:33;4.70;91.00
50690;DHT22;54375;48.298;11.238;2022-11-20T16:22:35;4.70;91.20
50690;DHT22;54375;48.298;11.238;2022-11-20T16:25:35;4.70;91.30
50690;DHT22;54375;48.298;11.238;2022-11-20T16:28:38;4.70;91.40
50690;DHT22;54375;48.298;11.238;2022-11-20T16:31:39;4.70;91.50
50690;DHT22;54375;48.298;11.238;2022-11-20T16:34:40;4.70;91.50
50690;DHT22;54375;48.298;11.238;2022-11-20T16:37:41;4.60;91.30
50690;DHT22;54375;48.298;11.238;2022-11-20T16:40:42;4.60;91.10
50690;DHT22;54375;48.298;11.238;2022-11-20T16:43:48;4.50;91.20
50690;DHT22;54375;48.298;11.238;2022-11-20T16:46:50;4.50;91.30
50690;DHT22;54375;48.298;11.238;2022-11-20T16:49:51;4.40;91.30
50690;DHT22;54375;48.298;11.238;2022-11-20T16:52:52;4.40;91.30
50690;DHT22;54375;48.298;11.238;2022-11-20T16:55:52;4.30;91.20
50690;DHT22;54375;48.298;11.238;2022-11-20T16:58:56;4.30;91.20
50690;DHT22;54375;48.298;11.238;2022-11-20T17:01:57;4.20;91.20
50690;DHT22;54375;48.298;11.238;2022-11-20T17:04:58;4.10;91.20
50690;DHT22;54375;48.298;11.238;2022-11-20T17:07:59;4.00;91.20
50690;DHT22;54375;48.298;11.238;2022-11-20T17:11:04;4.00;91.20
50690;DHT22;54375;48.298;11.238;2022-11-20T17:14:06;3.90;91.10
50690;DHT22;54375;48.298;11.238;2022-11-20T17:17:07;3.80;91.20
50690;DHT22;54375;48.298;11.238;2022-11-20T17:20:09;3.70;91.20
50690;DHT22;54375;48.298;11.238;2022-11-20T17:23:10;3.60;91.20
50690;DHT22;54375;48.298;11.238;2022-11-20T17:26:13;3.50;91.20
50690;DHT22;54375;48.298;11.238;2022-11-20T17:29:17;3.40;91.30
50690;DHT22;54375;48.298;11.238;2022-11-20T17:32:18;3.40;91.40
50690;DHT22;54375;48.298;11.238;2022-11-20T17:35:19;3.30;91.50
50690;DHT22;54375;48.298;11.238;2022-11-20T17:38:20;3.20;91.60
50690;DHT22;54375;48.298;11.238;2022-11-20T17:41:23;3.20;91.70
50690;DHT22;54375;48.298;11.238;2022-11-20T17:44:26;3.10;91.80
50690;DHT22;54375;48.298;11.238;2022-11-20T17:47:26;3.10;91.90
50690;DHT22;54375;48.298;11.238;2022-11-20T17:50:27;3.00;91.90
50690;DHT22;54375;48.298;11.238;2022-11-20T17:53:32;3.00;92.30
50690;DHT22;54375;48.298;11.238;2022-11-20T17:56:33;3.00;92.30
50690;DHT22;54375;48.298;11.238;2022-11-20T17:59:37;3.00;92.50
50690;DHT22;54375;48.298;11.238;2022-11-20T18:02:38;2.90;92.50
50690;DHT22;54375;48.298;11.238;2022-11-20T18:05:39;2.90;92.60
50690;DHT22;54375;48.298;11.238;2022-11-20T18:08:41;2.90;92.60
50690;DHT22;54375;48.298;11.238;2022-11-20T18:11:42;2.90;92.60
50690;DHT22;54375;48.298;11.238;2022-11-20T18:14:46;2.90;92.70
50690;DHT22;54375;48.298;11.238;2022-11-20T18:17:47;2.90;92.70
50690;DHT22;54375;48.298;11.238;2022-11-20T18:20:52;2.90;92.80
50690;DHT22;54375;48.298;11.238;2022-11-20T18:23:53;2.90;92.90
50690;DHT22;54375;48.298;11.238;2022-11-20T18:26:55;2.90;92.80
50690;DHT22;54375;48.298;11.238;2022-11-20T18:29:58;2.80;92.80
50690;DHT22;54375;48.298;11.238;2022-11-20T18:32:59;2.80;92.70
50690;DHT22;54375;48.298;11.238;2022-11-20T18:36:08;2.80;92.70
50690;DHT22;54375;48.298;11.238;2022-11-20T18:39:10;2.80;92.70
50690;DHT22;54375;48.298;11.238;2022-11-20T18:42:13;2.80;92.70
50690;DHT22;54375;48.298;11.238;2022-11-20T18:45:15;2.70;92.70
50690;DHT22;54375;48.298;11.238;2022-11-20T18:48:17;2.70;92.60
50690;DHT22;54375;48.298;11.238;2022-11-20T18:51:17;2.70;92.60
50690;DHT22;54375;48.298;11.238;2022-11-20T18:54:18;2.70;92.60
50690;DHT22;54375;48.298;11.238;2022-11-20T18:57:21;2.70;92.70
50690;DHT22;54375;48.298;11.238;2022-11-20T19:00:23;2.70;92.70
50690;DHT22;54375;48.298;11.238;2022-11-20T19:03:26;2.70;92.80
50690;DHT22;54375;48.298;11.238;2022-11-20T19:06:27;2.70;92.80
50690;DHT22;54375;48.298;11.238;2022-11-20T19:09:28;2.70;92.80
50690;DHT22;54375;48.298;11.238;2022-11-20T19:12:30;2.70;92.80
50690;DHT22;54375;48.298;11.238;2022-11-20T19:15:33;2.70;92.80
50690;DHT22;54375;48.298;11.238;2022-11-20T19:18:34;2.80;92.80
50690;DHT22;54375;48.298;11.238;2022-11-20T19:21:35;2.80;92.80
50690;DHT22;54375;48.298;11.238;2022-11-20T19:24:36;2.80;93.10